sensor_id;sensor_type;location;lat;lon;timestamp;pressure;altitude;pressure_sealevel;temperature;humidity
32759;BME280;19125;52.360;9.974;2023-02-18T00:00:57;87794.94;;;-145.17;48.76
32759;BME280;19125;52.360;9.974;2023-02-18T00:03:27;87779.03;;;-145.17;49.23
32759;BME280;19125;52.360;9.974;2023-02-18T00:05:53;87787.00;;;-145.17;49.31
32759;BME280;19125;52.360;9.974;2023-02-18T00:08:20;87783.00;;;-145.17;49.13
32759;BME280;19125;52.360;9.974;2023-02-18T00:10:45;87800.88;;;-145.17;49.56
32759;BME280;19125;52.360;9.974;2023-02-18T00:13:11;87781.03;;;-145.17;49.32
32759;BME280;19125;52.360;9.974;2023-02-18T00:15:37;87802.88;;;-145.17;49.20
32759;BME280;19125;52.360;9.974;2023-02-18T00:18:03;87783.00;;;-145.17;49.27
32759;BME280;19125;52.360;9.974;2023-02-18T00:20:28;87794.94;;;-145.17;49.09
32759;BME280;19125;52.360;9.974;2023-02-18T00:22:54;87814.78;;;-145.17;49.26
32759;BME280;19125;52.360;9.974;2023-02-18T00:25:19;87816.75;;;-145.17;49.07
32759;BME280;19125;52.360;9.974;2023-02-18T00:27:45;87836.63;;;-145.17;49.46
32759;BME280;19125;52.360;9.974;2023-02-18T00:30:10;87802.88;;;-145.17;49.84
32759;BME280;19125;52.360;9.974;2023-02-18T00:32:36;87802.88;;;-145.17;49.82
32759;BME280;19125;52.360;9.974;2023-02-18T00:35:02;87830.66;;;-145.17;49.85
32759;BME280;19125;52.360;9.974;2023-02-18T00:37:28;87846.53;;;-145.17;49.65
32759;BME280;19125;52.360;9.974;2023-02-18T00:39:53;87884.25;;;-145.17;49.75
32759;BME280;19125;52.360;9.974;2023-02-18T00:42:18;87796.91;;;-145.17;49.53
32759;BME280;19125;52.360;9.974;2023-02-18T00:44:44;87818.75;;;-145.17;50.08
32759;BME280;19125;52.360;9.974;2023-02-18T00:47:09;87860.44;;;-145.17;49.68
32759;BME280;19125;52.360;9.974;2023-02-18T00:49:35;87854.47;;;-145.17;50.02
32759;BME280;19125;52.360;9.974;2023-02-18T00:52:00;87852.50;;;-145.17;50.16
32759;BME280;19125;52.360;9.974;2023-02-18T00:54:25;87844.56;;;-145.17;50.14
32759;BME280;19125;52.360;9.974;2023-02-18T00:56:51;87858.44;;;-145.17;50.12
32759;BME280;19125;52.360;9.974;2023-02-18T00:59:16;87884.25;;;-145.17;50.05
32759;BME280;19125;52.360;9.974;2023-02-18T01:01:42;87888.22;;;-145.17;50.73
32759;BME280;19125;52.360;9.974;2023-02-18T01:04:07;87880.28;;;-145.17;50.50
32759;BME280;19125;52.360;9.974;2023-02-18T01:06:33;87918.00;;;-145.17;50.35
32759;BME280;19125;52.360;9.974;2023-02-18T01:08:58;87866.41;;;-145.17;50.38
32759;BME280;19125;52.360;9.974;2023-02-18T01:11:24;87900.16;;;-145.17;50.12
32759;BME280;19125;52.360;9.974;2023-02-18T01:13:50;87933.88;;;-145.17;50.74
32759;BME280;19125;52.360;9.974;2023-02-18T01:16:16;87898.16;;;-145.17;50.97
32759;BME280;19125;52.360;9.974;2023-02-18T01:18:42;87904.13;;;-145.17;50.63
32759;BME280;19125;52.360;9.974;2023-02-18T01:21:08;87874.34;;;-145.17;50.71
32759;BME280;19125;52.360;9.974;2023-02-18T01:23:34;87880.28;;;-145.17;50.43
32759;BME280;19125;52.360;9.974;2023-02-18T01:26:00;87886.25;;;-145.17;50.20
32759;BME280;19125;52.360;9.974;2023-02-18T01:28:25;87862.44;;;-145.17;50.04
32759;BME280;19125;52.360;9.974;2023-02-18T01:30:52;87894.19;;;-145.17;50.55
32759;BME280;19125;52.360;9.974;2023-02-18T01:33:18;87908.09;;;-145.17;50.69
32759;BME280;19125;52.360;9.974;2023-02-18T01:35:44;87864.41;;;-145.17;50.42
32759;BME280;19125;52.360;9.974;2023-02-18T01:38:09;87852.50;;;-145.17;50.44
32759;BME280;19125;52.360;9.974;2023-02-18T01:40:36;87912.06;;;-145.17;50.26
32759;BME280;19125;52.360;9.974;2023-02-18T01:43:01;87874.34;;;-145.17;50.36
32759;BME280;19125;52.360;9.974;2023-02-18T01:48:00;87824.72;;;-145.17;50.12
32759;BME280;19125;52.360;9.974;2023-02-18T01:50:28;87830.66;;;-145.17;50.34
32759;BME280;19125;52.360;9.974;2023-02-18T01:52:54;87798.91;;;-145.17;50.06
32759;BME280;19125;52.360;9.974;2023-02-18T01:55:19;87852.50;;;-145.17;49.70
32759;BME280;19125;52.360;9.974;2023-02-18T01:57:45;87808.81;;;-145.17;49.85
32759;BME280;19125;52.360;9.974;2023-02-18T02:00:14;87848.53;;;-145.17;50.32
32759;BME280;19125;52.360;9.974;2023-02-18T02:02:44;87878.31;;;-145.17;50.32
32759;BME280;19125;52.360;9.974;2023-02-18T02:05:11;87836.63;;;-145.17;50.20
32759;BME280;19125;52.360;9.974;2023-02-18T02:07:38;87787.00;;;-145.17;49.74
32759;BME280;19125;52.360;9.974;2023-02-18T02:10:06;87810.81;;;-145.17;50.17
32759;BME280;19125;52.360;9.974;2023-02-18T02:48:23;87775.06;;;-145.17;49.96
32759;BME280;19125;52.360;9.974;2023-02-18T02:51:04;87802.88;;;-145.17;49.98
32759;BME280;19125;52.360;9.974;2023-02-18T02:53:34;87838.59;;;-145.17;50.14
32759;BME280;19125;52.360;9.974;2023-02-18T02:55:59;87834.63;;;-145.17;50.12
32759;BME280;19125;52.360;9.974;2023-02-18T02:58:25;87860.44;;;-145.17;50.18
32759;BME280;19125;52.360;9.974;2023-02-18T03:04:17;87836.63;;;-145.17;50.22
32759;BME280;19125;52.360;9.974;2023-02-18T03:15:15;87860.44;;;-145.17;51.17
32759;BME280;19125;52.360;9.974;2023-02-18T03:17:57;87860.44;;;-145.17;50.59
32759;BME280;19125;52.360;9.974;2023-02-18T03:20:30;87878.31;;;-145.17;50.89
32759;BME280;19125;52.360;9.974;2023-02-18T03:23:00;87840.59;;;-145.17;50.66
32759;BME280;19125;52.360;9.974;2023-02-18T03:25:28;87882.28;;;-145.17;50.97
32759;BME280;19125;52.360;9.974;2023-02-18T03:28:00;87939.84;;;-145.17;51.69
32759;BME280;19125;52.360;9.974;2023-02-18T03:30:28;87931.91;;;-145.17;52.06
32759;BME280;19125;52.360;9.974;2023-02-18T03:32:59;87981.53;;;-145.17;52.35
32759;BME280;19125;52.360;9.974;2023-02-18T03:35:26;87989.47;;;-145.17;52.40
32759;BME280;19125;52.360;9.974;2023-02-18T03:38:00;88035.13;;;-145.17;53.27
32759;BME280;19125;52.360;9.974;2023-02-18T03:40:29;88086.75;;;-145.17;53.62
32759;BME280;19125;52.360;9.974;2023-02-18T03:42:56;88100.66;;;-145.17;54.17
32759;BME280;19125;52.360;9.974;2023-02-18T03:45:23;88172.13;;;-145.17;54.59
32759;BME280;19125;52.360;9.974;2023-02-18T03:47:48;88152.28;;;-145.17;55.05
32759;BME280;19125;52.360;9.974;2023-02-18T03:50:14;88138.38;;;-145.17;55.32
32759;BME280;19125;52.360;9.974;2023-02-18T03:52:39;88128.44;;;-145.17;55.68
32759;BME280;19125;52.360;9.974;2023-02-18T03:55:05;88112.56;;;-145.17;55.34
32759;BME280;19125;52.360;9.974;2023-02-18T03:57:32;88150.28;;;-145.17;55.73
32759;BME280;19125;52.360;9.974;2023-02-18T03:59:57;88019.25;;;-145.17;56.70
32759;BME280;19125;52.360;9.974;2023-02-18T04:02:22;87989.47;;;-145.17;56.58
32759;BME280;19125;52.360;9.974;2023-02-18T04:04:48;87872.34;;;-145.17;57.04
32759;BME280;19125;52.360;9.974;2023-02-18T04:07:13;87822.72;;;-145.17;56.97
32759;BME280;19125;52.360;9.974;2023-02-18T04:09:39;87707.59;;;-145.17;57.21
32759;BME280;19125;52.360;9.974;2023-02-18T04:12:04;87572.59;;;-145.17;57.34
32759;BME280;19125;52.360;9.974;2023-02-18T04:14:30;87467.38;;;-145.17;57.66
32759;BME280;19125;52.360;9.974;2023-02-18T04:16:55;87443.56;;;-145.17;57.51
32759;BME280;19125;52.360;9.974;2023-02-18T04:19:21;87346.31;;;-145.17;57.70
32759;BME280;19125;52.360;9.974;2023-02-18T04:21:46;87346.31;;;-145.17;57.83
32759;BME280;19125;52.360;9.974;2023-02-18T04:24:11;87135.91;;;-145.17;57.99
32759;BME280;19125;52.360;9.974;2023-02-18T04:26:37;86762.78;;;-145.17;58.27
32759;BME280;19125;52.360;9.974;2023-02-18T04:29:02;85980.88;;;-145.17;59.01
32759;BME280;19125;52.360;9.974;2023-02-18T04:31:27;84592.13;;;-145.17;58.95
32759;BME280;19125;52.360;9.974;2023-02-18T04:33:53;82301.72;;;-145.17;59.66
32759;BME280;19125;52.360;9.974;2023-02-18T04:36:18;79156.78;;;-145.17;60.33
32759;BME280;19125;52.360;9.974;2023-02-18T04:38:44;74075.00;;;-145.17;60.37
32759;BME280;19125;52.360;9.974;2023-02-18T04:41:09;66893.94;;;-145.17;61.00
32759;BME280;19125;52.360;9.974;2023-02-18T04:43:36;59719.84;;;-145.17;61.53
32759;BME280;19125;52.360;9.974;2023-02-18T04:46:02;53416.72;;;-145.17;62.19
32759;BME280;19125;52.360;9.974;2023-02-18T04:48:27;46872.09;;;-145.17;62.73
32759;BME280;19125;52.360;9.974;2023-02-18T04:50:53;39836.16;;;-145.17;63.89
32759;BME280;19125;52.360;9.974;2023-02-18T04:53:18;33314.06;;;-145.17;64.04
32759;BME280;19125;52.360;9.974;2023-02-18T04:55:49;27303.25;;;-145.17;65.02
32759;BME280;19125;52.360;9.974;2023-02-18T04:58:14;22051.38;;;-145.17;65.45
32759;BME280;19125;52.360;9.974;2023-02-18T05:00:40;18304.34;;;-145.17;65.34
32759;BME280;19125;52.360;9.974;2023-02-18T05:03:05;14810.38;;;-145.17;65.88
32759;BME280;19125;52.360;9.974;2023-02-18T05:05:30;11818.06;;;-145.17;66.68
32759;BME280;19125;52.360;9.974;2023-02-18T05:07:56;8828.06;;;-145.17;66.73
32759;BME280;19125;52.360;9.974;2023-02-18T05:10:21;6338.13;;;-145.17;67.20
32759;BME280;19125;52.360;9.974;2023-02-18T05:12:46;3849.81;;;-145.17;67.69
32759;BME280;19125;52.360;9.974;2023-02-18T05:15:12;1860.31;;;-145.17;67.80
32759;BME280;19125;52.360;9.974;2023-02-18T05:17:41;120.34;;;-145.17;68.59
32759;BME280;19125;52.360;9.974;2023-02-18T05:20:07;-1370.41;;;-145.17;68.48
32759;BME280;19125;52.360;9.974;2023-02-18T05:22:32;-3108.94;;;-145.17;68.77
32759;BME280;19125;52.360;9.974;2023-02-18T05:24:58;-4598.47;;;-145.17;69.50
32759;BME280;19125;52.360;9.974;2023-02-18T05:27:23;-5591.16;;;-145.17;69.74
32759;BME280;19125;52.360;9.974;2023-02-18T05:29:49;-6831.66;;;-145.17;69.60
32759;BME280;19125;52.360;9.974;2023-02-18T05:32:14;-7823.78;;;-145.17;69.81
32759;BME280;19125;52.360;9.974;2023-02-18T05:34:39;-8815.66;;;-145.17;70.17
32759;BME280;19125;52.360;9.974;2023-02-18T05:37:05;-9559.38;;;-145.17;70.12
32759;BME280;19125;52.360;9.974;2023-02-18T05:39:30;-10550.78;;;-145.17;70.76
32759;BME280;19125;52.360;9.974;2023-02-18T05:41:56;-11294.19;;;-145.17;70.46
32759;BME280;19125;52.360;9.974;2023-02-18T05:44:21;-12037.44;;;-145.17;71.05
32759;BME280;19125;52.360;9.974;2023-02-18T05:47:04;-12532.84;;;-145.17;71.14
32759;BME280;19125;52.360;9.974;2023-02-18T05:49:30;-13028.22;;;-145.17;71.26
32759;BME280;19125;52.360;9.974;2023-02-18T05:51:56;-13523.50;;;-145.17;71.38
32759;BME280;19125;52.360;9.974;2023-02-18T05:54:22;-13771.13;;;-145.17;71.08
32759;BME280;19125;52.360;9.974;2023-02-18T05:56:47;-14266.31;;;-145.17;71.39
32759;BME280;19125;52.360;9.974;2023-02-18T05:59:13;-14513.88;;;-145.17;71.75
32759;BME280;19125;52.360;9.974;2023-02-18T06:01:45;-14513.88;;;-145.17;71.25
32759;BME280;19125;52.360;9.974;2023-02-18T06:04:11;-14761.44;;;-145.17;71.54
32759;BME280;19125;52.360;9.974;2023-02-18T06:06:37;-15009.00;;;-145.17;71.63
32759;BME280;19125;52.360;9.974;2023-02-18T06:09:04;-15009.00;;;-145.17;72.08
32759;BME280;19125;52.360;9.974;2023-02-18T06:11:29;-15009.00;;;-145.17;71.42
32759;BME280;19125;52.360;9.974;2023-02-18T06:13:55;-15010.44;;;-145.17;71.77
32759;BME280;19125;52.360;9.974;2023-02-18T06:16:20;-15010.44;;;-145.17;71.77
32759;BME280;19125;52.360;9.974;2023-02-18T06:18:45;-15010.44;;;-145.17;71.66
32759;BME280;19125;52.360;9.974;2023-02-18T06:21:11;-15010.44;;;-145.17;72.36
32759;BME280;19125;52.360;9.974;2023-02-18T06:23:36;-15010.44;;;-145.17;72.30
32759;BME280;19125;52.360;9.974;2023-02-18T06:26:01;-15010.44;;;-145.17;71.70
32759;BME280;19125;52.360;9.974;2023-02-18T06:28:27;-15010.44;;;-145.17;72.16
32759;BME280;19125;52.360;9.974;2023-02-18T06:30:52;-15010.44;;;-145.17;72.12
32759;BME280;19125;52.360;9.974;2023-02-18T06:33:17;-15010.44;;;-145.17;72.34
32759;BME280;19125;52.360;9.974;2023-02-18T06:35:53;-15010.44;;;-145.17;72.30
32759;BME280;19125;52.360;9.974;2023-02-18T06:38:18;-15010.44;;;-145.17;72.29
32759;BME280;19125;52.360;9.974;2023-02-18T06:40:46;-15010.44;;;-145.17;72.44
32759;BME280;19125;52.360;9.974;2023-02-18T06:43:11;-15010.44;;;-145.17;72.25
32759;BME280;19125;52.360;9.974;2023-02-18T06:45:38;-15010.44;;;-145.17;72.88
32759;BME280;19125;52.360;9.974;2023-02-18T06:48:03;-15010.44;;;-145.17;72.51
32759;BME280;19125;52.360;9.974;2023-02-18T06:50:28;-15010.44;;;-145.17;72.96
32759;BME280;19125;52.360;9.974;2023-02-18T06:52:54;-15010.44;;;-145.17;72.68
32759;BME280;19125;52.360;9.974;2023-02-18T06:55:20;-15010.44;;;-145.17;72.78
32759;BME280;19125;52.360;9.974;2023-02-18T06:57:45;-15010.44;;;-145.17;73.04
32759;BME280;19125;52.360;9.974;2023-02-18T07:00:12;-15010.44;;;-145.17;72.80
32759;BME280;19125;52.360;9.974;2023-02-18T07:02:37;-15010.44;;;-145.17;72.78
32759;BME280;19125;52.360;9.974;2023-02-18T07:05:02;-15010.44;;;-145.17;72.83
32759;BME280;19125;52.360;9.974;2023-02-18T07:07:28;-15010.44;;;-145.17;72.97
32759;BME280;19125;52.360;9.974;2023-02-18T07:09:53;-15010.44;;;-145.17;73.22
32759;BME280;19125;52.360;9.974;2023-02-18T07:12:21;-15010.44;;;-145.17;73.09
32759;BME280;19125;52.360;9.974;2023-02-18T07:14:47;-15010.44;;;-145.17;73.26
32759;BME280;19125;52.360;9.974;2023-02-18T07:17:12;-15010.44;;;-145.17;73.37
32759;BME280;19125;52.360;9.974;2023-02-18T07:19:38;-15010.44;;;-145.17;73.21
32759;BME280;19125;52.360;9.974;2023-02-18T07:22:03;-15010.44;;;-145.17;73.71
32759;BME280;19125;52.360;9.974;2023-02-18T07:24:28;-15010.44;;;-145.17;73.04
32759;BME280;19125;52.360;9.974;2023-02-18T07:26:54;-15010.44;;;-145.17;73.78
32759;BME280;19125;52.360;9.974;2023-02-18T07:29:19;-15010.44;;;-145.17;73.57
32759;BME280;19125;52.360;9.974;2023-02-18T07:31:44;-15010.44;;;-145.17;73.41
32759;BME280;19125;52.360;9.974;2023-02-18T07:34:10;-15010.44;;;-145.17;73.93
32759;BME280;19125;52.360;9.974;2023-02-18T07:36:35;-15010.44;;;-145.17;73.93
32759;BME280;19125;52.360;9.974;2023-02-18T07:39:00;-15010.44;;;-145.17;74.02
32759;BME280;19125;52.360;9.974;2023-02-18T07:41:26;-15010.44;;;-145.17;73.87
32759;BME280;19125;52.360;9.974;2023-02-18T07:43:51;-15010.44;;;-145.17;74.22
32759;BME280;19125;52.360;9.974;2023-02-18T07:46:17;-15010.44;;;-145.17;74.33
32759;BME280;19125;52.360;9.974;2023-02-18T07:48:43;-15010.44;;;-145.17;74.15
32759;BME280;19125;52.360;9.974;2023-02-18T07:51:10;-15010.44;;;-145.17;74.07
32759;BME280;19125;52.360;9.974;2023-02-18T07:53:36;-15010.44;;;-145.17;74.43
32759;BME280;19125;52.360;9.974;2023-02-18T07:56:03;-15010.44;;;-145.17;74.39
32759;BME280;19125;52.360;9.974;2023-02-18T07:58:31;-15010.44;;;-145.17;74.36
32759;BME280;19125;52.360;9.974;2023-02-18T08:00:57;-15010.44;;;-145.17;75.04
32759;BME280;19125;52.360;9.974;2023-02-18T08:03:39;-15010.44;;;-145.17;74.42
32759;BME280;19125;52.360;9.974;2023-02-18T08:06:45;-15010.44;;;-145.17;74.94
32759;BME280;19125;52.360;9.974;2023-02-18T08:09:35;-15010.44;;;-145.17;74.91
32759;BME280;19125;52.360;9.974;2023-02-18T08:15:00;-15010.44;;;-145.17;75.03
32759;BME280;19125;52.360;9.974;2023-02-18T08:17:28;-15010.44;;;-145.17;75.64
32759;BME280;19125;52.360;9.974;2023-02-18T08:19:56;-15010.44;;;-145.17;74.88
32759;BME280;19125;52.360;9.974;2023-02-18T08:22:22;-15010.44;;;-145.17;75.18
32759;BME280;19125;52.360;9.974;2023-02-18T08:24:47;-15010.44;;;-145.17;75.41
32759;BME280;19125;52.360;9.974;2023-02-18T08:27:13;-15010.44;;;-145.17;75.39
32759;BME280;19125;52.360;9.974;2023-02-18T08:29:38;-15010.44;;;-145.17;75.89
32759;BME280;19125;52.360;9.974;2023-02-18T08:32:04;-15010.44;;;-145.17;75.57
32759;BME280;19125;52.360;9.974;2023-02-18T08:34:29;-15010.44;;;-145.17;75.63
32759;BME280;19125;52.360;9.974;2023-02-18T08:36:55;-15010.44;;;-145.17;76.18
32759;BME280;19125;52.360;9.974;2023-02-18T08:39:20;-15010.44;;;-145.17;76.04
32759;BME280;19125;52.360;9.974;2023-02-18T08:41:45;-15010.44;;;-145.17;76.03
32759;BME280;19125;52.360;9.974;2023-02-18T08:44:11;-15010.44;;;-145.17;76.15
32759;BME280;19125;52.360;9.974;2023-02-18T08:46:36;-15010.44;;;-145.17;76.13
32759;BME280;19125;52.360;9.974;2023-02-18T08:49:04;-15010.44;;;-145.17;76.27
32759;BME280;19125;52.360;9.974;2023-02-18T08:51:30;-15010.44;;;-145.17;76.68
32759;BME280;19125;52.360;9.974;2023-02-18T08:53:55;-15010.44;;;-145.17;76.04
32759;BME280;19125;52.360;9.974;2023-02-18T08:56:21;-15010.44;;;-145.17;76.35
32759;BME280;19125;52.360;9.974;2023-02-18T08:58:46;-15010.44;;;-145.17;76.43
32759;BME280;19125;52.360;9.974;2023-02-18T09:01:12;-15010.44;;;-145.17;76.22
32759;BME280;19125;52.360;9.974;2023-02-18T09:03:38;-15010.44;;;-145.17;76.16
32759;BME280;19125;52.360;9.974;2023-02-18T09:06:08;-15010.44;;;-145.17;76.40
32759;BME280;19125;52.360;9.974;2023-02-18T09:08:34;-15010.44;;;-145.17;76.63
32759;BME280;19125;52.360;9.974;2023-02-18T09:11:01;-15010.44;;;-145.17;76.20
32759;BME280;19125;52.360;9.974;2023-02-18T09:13:28;-15010.44;;;-145.17;76.20
32759;BME280;19125;52.360;9.974;2023-02-18T09:16:05;-15010.44;;;-145.17;75.71
32759;BME280;19125;52.360;9.974;2023-02-18T09:18:31;-15010.44;;;-145.17;75.56
32759;BME280;19125;52.360;9.974;2023-02-18T09:20:58;-15010.44;;;-145.17;75.45
32759;BME280;19125;52.360;9.974;2023-02-18T09:23:29;-15010.44;;;-145.17;75.06
32759;BME280;19125;52.360;9.974;2023-02-18T09:25:55;-15010.44;;;-145.17;75.07
32759;BME280;19125;52.360;9.974;2023-02-18T09:28:21;-15010.44;;;-145.17;74.40
32759;BME280;19125;52.360;9.974;2023-02-18T09:30:47;-15010.44;;;-145.17;74.18
32759;BME280;19125;52.360;9.974;2023-02-18T09:33:16;-15010.44;;;-145.17;74.03
32759;BME280;19125;52.360;9.974;2023-02-18T09:35:43;-15010.44;;;-145.17;73.61
32759;BME280;19125;52.360;9.974;2023-02-18T09:38:11;-15010.44;;;-145.17;72.96
32759;BME280;19125;52.360;9.974;2023-02-18T09:40:41;-15010.44;;;-145.17;72.80
32759;BME280;19125;52.360;9.974;2023-02-18T09:43:08;-15010.44;;;-145.17;72.45
32759;BME280;19125;52.360;9.974;2023-02-18T09:45:40;-15010.44;;;-145.17;72.04
32759;BME280;19125;52.360;9.974;2023-02-18T09:48:05;-15010.44;;;-145.17;71.66
32759;BME280;19125;52.360;9.974;2023-02-18T09:50:32;-15010.44;;;-145.17;71.16
32759;BME280;19125;52.360;9.974;2023-02-18T09:52:59;-15010.44;;;-145.17;70.79
32759;BME280;19125;52.360;9.974;2023-02-18T09:55:31;-15010.44;;;-145.17;70.54
32759;BME280;19125;52.360;9.974;2023-02-18T09:58:03;-15010.44;;;-145.17;70.04
32759;BME280;19125;52.360;9.974;2023-02-18T10:00:34;-15010.44;;;-145.17;69.99
32759;BME280;19125;52.360;9.974;2023-02-18T10:03:13;-15010.44;;;-145.17;70.07
32759;BME280;19125;52.360;9.974;2023-02-18T10:06:02;-15010.44;;;-145.17;69.94
32759;BME280;19125;52.360;9.974;2023-02-18T10:08:37;-15010.44;;;-145.17;69.71
32759;BME280;19125;52.360;9.974;2023-02-18T10:11:14;-15009.00;;;-145.17;69.71
32759;BME280;19125;52.360;9.974;2023-02-18T10:13:41;-15009.00;;;-145.17;69.68
32759;BME280;19125;52.360;9.974;2023-02-18T10:16:08;-14761.44;;;-145.17;69.92
32759;BME280;19125;52.360;9.974;2023-02-18T10:18:48;-14761.44;;;-145.17;69.92
32759;BME280;19125;52.360;9.974;2023-02-18T10:21:19;-14513.88;;;-145.17;69.81
32759;BME280;19125;52.360;9.974;2023-02-18T10:23:53;-14513.88;;;-145.17;69.95
32759;BME280;19125;52.360;9.974;2023-02-18T10:26:22;-14513.88;;;-145.17;69.98
32759;BME280;19125;52.360;9.974;2023-02-18T10:28:51;-14761.44;;;-145.17;70.27
32759;BME280;19125;52.360;9.974;2023-02-18T10:31:30;-15009.00;;;-145.17;70.70
32759;BME280;19125;52.360;9.974;2023-02-18T10:34:11;-15009.00;;;-145.17;70.90
32759;BME280;19125;52.360;9.974;2023-02-18T10:36:45;-15010.44;;;-145.17;71.31
32759;BME280;19125;52.360;9.974;2023-02-18T10:45:22;-15010.44;;;-145.17;72.38
32759;BME280;19125;52.360;9.974;2023-02-18T10:50:28;-15010.44;;;-145.17;72.47
32759;BME280;19125;52.360;9.974;2023-02-18T10:52:58;-15010.44;;;-145.17;72.72
32759;BME280;19125;52.360;9.974;2023-02-18T10:55:39;-15010.44;;;-145.17;73.16
32759;BME280;19125;52.360;9.974;2023-02-18T10:58:29;-15010.44;;;-145.17;73.04
32759;BME280;19125;52.360;9.974;2023-02-18T11:00:55;-15010.44;;;-145.17;73.02
32759;BME280;19125;52.360;9.974;2023-02-18T11:03:37;-15010.44;;;-145.17;72.96
32759;BME280;19125;52.360;9.974;2023-02-18T11:06:04;-15010.44;;;-145.17;72.77
32759;BME280;19125;52.360;9.974;2023-02-18T11:08:42;-15010.44;;;-145.17;72.65
32759;BME280;19125;52.360;9.974;2023-02-18T11:11:14;-15010.44;;;-145.17;72.14
32759;BME280;19125;52.360;9.974;2023-02-18T11:13:41;-15010.44;;;-145.17;72.18
32759;BME280;19125;52.360;9.974;2023-02-18T11:16:06;-15010.44;;;-145.17;71.44
32759;BME280;19125;52.360;9.974;2023-02-18T11:23:52;-15010.44;;;-145.17;70.12
32759;BME280;19125;52.360;9.974;2023-02-18T11:26:26;-15010.44;;;-145.17;69.94
32759;BME280;19125;52.360;9.974;2023-02-18T11:28:57;-15010.44;;;-145.17;70.40
32759;BME280;19125;52.360;9.974;2023-02-18T11:31:28;-15010.44;;;-145.17;69.84
32759;BME280;19125;52.360;9.974;2023-02-18T11:33:59;-15010.44;;;-145.17;70.34
32759;BME280;19125;52.360;9.974;2023-02-18T11:36:32;-15010.44;;;-145.17;70.37
32759;BME280;19125;52.360;9.974;2023-02-18T11:39:05;-15010.44;;;-145.17;70.29
32759;BME280;19125;52.360;9.974;2023-02-18T11:41:39;-15010.44;;;-145.17;70.67
32759;BME280;19125;52.360;9.974;2023-02-18T11:44:17;-15010.44;;;-145.17;70.90
32759;BME280;19125;52.360;9.974;2023-02-18T11:49:38;-15010.44;;;-145.17;71.36
32759;BME280;19125;52.360;9.974;2023-02-18T11:52:17;-15010.44;;;-145.17;71.14
32759;BME280;19125;52.360;9.974;2023-02-18T11:57:34;-15010.44;;;-145.17;71.76
32759;BME280;19125;52.360;9.974;2023-02-18T12:00:02;-15010.44;;;-145.17;71.75
32759;BME280;19125;52.360;9.974;2023-02-18T12:02:36;-15010.44;;;-145.17;71.66
32759;BME280;19125;52.360;9.974;2023-02-18T12:05:18;-15010.44;;;-145.17;71.79
32759;BME280;19125;52.360;9.974;2023-02-18T12:08:02;-15010.44;;;-145.17;72.03
32759;BME280;19125;52.360;9.974;2023-02-18T12:13:16;-15010.44;;;-145.17;71.65
32759;BME280;19125;52.360;9.974;2023-02-18T12:19:01;-15010.44;;;-145.17;71.48
32759;BME280;19125;52.360;9.974;2023-02-18T12:24:38;-15010.44;;;-145.17;71.30
32759;BME280;19125;52.360;9.974;2023-02-18T12:33:15;-15010.44;;;-145.17;70.25
32759;BME280;19125;52.360;9.974;2023-02-18T12:41:11;-15010.44;;;-145.17;69.80
32759;BME280;19125;52.360;9.974;2023-02-18T12:47:03;-15010.44;;;-145.17;70.51
32759;BME280;19125;52.360;9.974;2023-02-18T12:49:47;-15010.44;;;-145.17;70.49
32759;BME280;19125;52.360;9.974;2023-02-18T12:52:45;-15010.44;;;-145.17;70.49
32759;BME280;19125;52.360;9.974;2023-02-18T12:55:39;-15010.44;;;-145.17;70.34
32759;BME280;19125;52.360;9.974;2023-02-18T13:00:59;-15010.44;;;-145.17;70.08
32759;BME280;19125;52.360;9.974;2023-02-18T13:06:27;-15010.44;;;-145.17;69.48
32759;BME280;19125;52.360;9.974;2023-02-18T13:14:28;-14513.88;;;-145.17;69.01
32759;BME280;19125;52.360;9.974;2023-02-18T13:16:58;-14266.31;;;-145.17;68.91
32759;BME280;19125;52.360;9.974;2023-02-18T13:19:29;-14266.31;;;-145.17;69.00
32759;BME280;19125;52.360;9.974;2023-02-18T13:22:03;-14266.31;;;-145.17;69.10
32759;BME280;19125;52.360;9.974;2023-02-18T13:24:33;-14266.31;;;-145.17;68.99
32759;BME280;19125;52.360;9.974;2023-02-18T13:33:31;-13771.13;;;-145.17;68.85
32759;BME280;19125;52.360;9.974;2023-02-18T13:36:04;-13771.13;;;-145.17;68.75
32759;BME280;19125;52.360;9.974;2023-02-18T13:41:15;-13771.13;;;-145.17;68.83
32759;BME280;19125;52.360;9.974;2023-02-18T13:43:41;-14018.72;;;-145.17;68.85
32759;BME280;19125;52.360;9.974;2023-02-18T13:46:16;-14018.72;;;-145.17;68.82
32759;BME280;19125;52.360;9.974;2023-02-18T13:51:32;-14266.31;;;-145.17;69.38
32759;BME280;19125;52.360;9.974;2023-02-18T13:56:39;-14761.44;;;-145.17;69.48
32759;BME280;19125;52.360;9.974;2023-02-18T13:59:35;-15009.00;;;-145.17;70.31
32759;BME280;19125;52.360;9.974;2023-02-18T14:04:47;-15010.44;;;-145.17;70.57
32759;BME280;19125;52.360;9.974;2023-02-18T14:09:45;-15010.44;;;-145.17;71.03
32759;BME280;19125;52.360;9.974;2023-02-18T14:12:23;-15010.44;;;-145.17;71.09
32759;BME280;19125;52.360;9.974;2023-02-18T14:14:50;-15010.44;;;-145.17;71.10
32759;BME280;19125;52.360;9.974;2023-02-18T14:25:20;-15010.44;;;-145.17;71.08
32759;BME280;19125;52.360;9.974;2023-02-18T14:27:49;-15010.44;;;-145.17;70.97
32759;BME280;19125;52.360;9.974;2023-02-18T14:30:24;-15010.44;;;-145.17;70.71
32759;BME280;19125;52.360;9.974;2023-02-18T14:32:55;-15010.44;;;-145.17;71.03
32759;BME280;19125;52.360;9.974;2023-02-18T14:41:40;-15010.44;;;-145.17;71.66
32759;BME280;19125;52.360;9.974;2023-02-18T14:47:01;-15010.44;;;-145.17;71.97
32759;BME280;19125;52.360;9.974;2023-02-18T14:49:47;-15010.44;;;-145.17;72.20
32759;BME280;19125;52.360;9.974;2023-02-18T14:52:44;-15010.44;;;-145.17;72.30
32759;BME280;19125;52.360;9.974;2023-02-18T14:55:33;-15010.44;;;-145.17;72.39
32759;BME280;19125;52.360;9.974;2023-02-18T14:58:05;-15010.44;;;-145.17;72.18
32759;BME280;19125;52.360;9.974;2023-02-18T15:00:35;-15010.44;;;-145.17;72.03
32759;BME280;19125;52.360;9.974;2023-02-18T15:03:03;-15010.44;;;-145.17;71.80
32759;BME280;19125;52.360;9.974;2023-02-18T15:05:36;-15010.44;;;-145.17;71.51